sensor_id;sensor_type;location;lat;lon;timestamp;P1;durP1;ratioP1;P2;durP2;ratioP2
2404;SDS011;1213;43.206;27.922;2023-08-07T00:01:43;4.17;;;3.77;;
2404;SDS011;1213;43.206;27.922;2023-08-07T00:04:09;7.13;;;2.90;;
2404;SDS011;1213;43.206;27.922;2023-08-07T00:06:34;3.80;;;3.50;;
2404;SDS011;1213;43.206;27.922;2023-08-07T00:09:00;4.83;;;3.60;;
2404;SDS011;1213;43.206;27.922;2023-08-07T00:11:25;5.00;;;3.20;;
2404;SDS011;1213;43.206;27.922;2023-08-07T00:13:52;3.63;;;3.30;;
2404;SDS011;1213;43.206;27.922;2023-08-07T00:16:18;3.70;;;3.13;;
2404;SDS011;1213;43.206;27.922;2023-08-07T00:18:43;5.93;;;3.17;;
2404;SDS011;1213;43.206;27.922;2023-08-07T00:21:09;4.00;;;3.20;;
2404;SDS011;1213;43.206;27.922;2023-08-07T00:23:34;3.63;;;3.33;;
2404;SDS011;1213;43.206;27.922;2023-08-07T00:26:00;3.13;;;2.93;;
2404;SDS011;1213;43.206;27.922;2023-08-07T00:28:25;4.57;;;3.20;;
2404;SDS011;1213;43.206;27.922;2023-08-07T00:30:50;4.30;;;3.90;;
2404;SDS011;1213;43.206;27.922;2023-08-07T00:33:16;4.40;;;4.00;;
2404;SDS011;1213;43.206;27.922;2023-08-07T00:35:41;4.90;;;3.93;;
2404;SDS011;1213;43.206;27.922;2023-08-07T00:38:07;4.30;;;3.43;;
2404;SDS011;1213;43.206;27.922;2023-08-07T00:40:36;4.73;;;4.33;;
2404;SDS011;1213;43.206;27.922;2023-08-07T00:43:02;5.10;;;4.10;;
2404;SDS011;1213;43.206;27.922;2023-08-07T00:45:28;5.50;;;4.43;;
2404;SDS011;1213;43.206;27.922;2023-08-07T00:47:53;3.97;;;3.57;;
2404;SDS011;1213;43.206;27.922;2023-08-07T00:50:19;4.10;;;3.80;;
2404;SDS011;1213;43.206;27.922;2023-08-07T00:52:44;4.80;;;3.70;;
2404;SDS011;1213;43.206;27.922;2023-08-07T00:55:10;3.90;;;3.50;;
2404;SDS011;1213;43.206;27.922;2023-08-07T00:57:35;4.13;;;3.73;;
2404;SDS011;1213;43.206;27.922;2023-08-07T01:00:02;4.77;;;4.37;;
2404;SDS011;1213;43.206;27.922;2023-08-07T01:02:27;7.87;;;4.93;;
2404;SDS011;1213;43.206;27.922;2023-08-07T01:04:53;6.03;;;5.10;;
2404;SDS011;1213;43.206;27.922;2023-08-07T01:07:19;4.80;;;4.30;;
2404;SDS011;1213;43.206;27.922;2023-08-07T01:09:44;6.50;;;4.83;;
2404;SDS011;1213;43.206;27.922;2023-08-07T01:12:13;5.70;;;4.73;;
2404;SDS011;1213;43.206;27.922;2023-08-07T01:17:23;5.83;;;5.13;;
2404;SDS011;1213;43.206;27.922;2023-08-07T01:19:50;7.00;;;5.33;;
2404;SDS011;1213;43.206;27.922;2023-08-07T01:22:17;6.53;;;4.97;;
2404;SDS011;1213;43.206;27.922;2023-08-07T01:24:44;6.03;;;5.27;;
2404;SDS011;1213;43.206;27.922;2023-08-07T01:29:52;7.30;;;5.57;;
2404;SDS011;1213;43.206;27.922;2023-08-07T01:32:26;9.70;;;5.50;;
2404;SDS011;1213;43.206;27.922;2023-08-07T01:35:03;6.17;;;5.47;;
2404;SDS011;1213;43.206;27.922;2023-08-07T01:37:34;6.83;;;6.13;;
2404;SDS011;1213;43.206;27.922;2023-08-07T01:40:02;6.53;;;5.80;;
2404;SDS011;1213;43.206;27.922;2023-08-07T01:42:30;5.33;;;4.93;;
2404;SDS011;1213;43.206;27.922;2023-08-07T01:44:57;5.37;;;4.87;;
2404;SDS011;1213;43.206;27.922;2023-08-07T01:47:23;6.17;;;5.60;;
2404;SDS011;1213;43.206;27.922;2023-08-07T01:49:48;6.87;;;6.17;;
2404;SDS011;1213;43.206;27.922;2023-08-07T01:52:14;5.70;;;5.10;;
2404;SDS011;1213;43.206;27.922;2023-08-07T01:54:39;7.13;;;6.27;;
2404;SDS011;1213;43.206;27.922;2023-08-07T01:57:05;7.00;;;6.30;;
2404;SDS011;1213;43.206;27.922;2023-08-07T01:59:30;6.53;;;4.93;;
2404;SDS011;1213;43.206;27.922;2023-08-07T02:01:56;8.03;;;5.30;;
2404;SDS011;1213;43.206;27.922;2023-08-07T02:04:21;5.07;;;4.57;;
2404;SDS011;1213;43.206;27.922;2023-08-07T02:06:46;6.20;;;5.60;;
2404;SDS011;1213;43.206;27.922;2023-08-07T02:09:12;4.57;;;4.10;;
2404;SDS011;1213;43.206;27.922;2023-08-07T02:11:37;5.90;;;5.30;;
2404;SDS011;1213;43.206;27.922;2023-08-07T02:14:03;6.43;;;5.77;;
2404;SDS011;1213;43.206;27.922;2023-08-07T02:16:28;6.17;;;4.93;;
2404;SDS011;1213;43.206;27.922;2023-08-07T02:18:54;5.83;;;4.70;;
2404;SDS011;1213;43.206;27.922;2023-08-07T02:21:19;7.57;;;3.93;;
2404;SDS011;1213;43.206;27.922;2023-08-07T02:23:45;6.37;;;5.57;;
2404;SDS011;1213;43.206;27.922;2023-08-07T02:26:10;7.53;;;5.53;;
2404;SDS011;1213;43.206;27.922;2023-08-07T02:28:36;5.90;;;5.30;;
2404;SDS011;1213;43.206;27.922;2023-08-07T02:31:01;5.97;;;4.87;;
2404;SDS011;1213;43.206;27.922;2023-08-07T02:33:27;8.90;;;6.07;;
2404;SDS011;1213;43.206;27.922;2023-08-07T02:35:55;6.17;;;5.57;;
2404;SDS011;1213;43.206;27.922;2023-08-07T02:38:20;5.07;;;4.50;;
2404;SDS011;1213;43.206;27.922;2023-08-07T02:40:46;5.47;;;4.97;;
2404;SDS011;1213;43.206;27.922;2023-08-07T02:43:11;5.47;;;4.97;;
2404;SDS011;1213;43.206;27.922;2023-08-07T02:45:36;5.80;;;5.20;;
2404;SDS011;1213;43.206;27.922;2023-08-07T02:48:02;6.40;;;5.03;;
2404;SDS011;1213;43.206;27.922;2023-08-07T02:50:28;5.53;;;4.00;;
2404;SDS011;1213;43.206;27.922;2023-08-07T02:52:57;5.73;;;5.13;;
2404;SDS011;1213;43.206;27.922;2023-08-07T02:55:23;7.13;;;5.70;;
2404;SDS011;1213;43.206;27.922;2023-08-07T02:57:48;6.80;;;4.80;;
2404;SDS011;1213;43.206;27.922;2023-08-07T03:00:14;6.30;;;5.47;;
2404;SDS011;1213;43.206;27.922;2023-08-07T03:02:39;5.33;;;4.83;;
2404;SDS011;1213;43.206;27.922;2023-08-07T03:05:05;7.27;;;5.37;;
2404;SDS011;1213;43.206;27.922;2023-08-07T03:07:30;6.00;;;4.93;;
2404;SDS011;1213;43.206;27.922;2023-08-07T03:09:56;4.93;;;4.50;;
2404;SDS011;1213;43.206;27.922;2023-08-07T03:12:21;4.50;;;3.50;;
2404;SDS011;1213;43.206;27.922;2023-08-07T03:14:47;3.43;;;3.13;;
2404;SDS011;1213;43.206;27.922;2023-08-07T03:17:12;10.10;;;3.50;;
2404;SDS011;1213;43.206;27.922;2023-08-07T03:19:39;5.83;;;4.57;;
2404;SDS011;1213;43.206;27.922;2023-08-07T03:22:07;4.83;;;4.13;;
2404;SDS011;1213;43.206;27.922;2023-08-07T03:24:32;3.40;;;3.10;;
2404;SDS011;1213;43.206;27.922;2023-08-07T03:26:57;4.90;;;4.40;;
2404;SDS011;1213;43.206;27.922;2023-08-07T03:29:23;4.80;;;3.57;;
2404;SDS011;1213;43.206;27.922;2023-08-07T03:31:49;3.70;;;3.30;;
2404;SDS011;1213;43.206;27.922;2023-08-07T03:34:15;4.90;;;4.40;;
2404;SDS011;1213;43.206;27.922;2023-08-07T03:36:40;6.33;;;4.00;;
2404;SDS011;1213;43.206;27.922;2023-08-07T03:39:06;4.40;;;4.07;;
2404;SDS011;1213;43.206;27.922;2023-08-07T03:41:31;4.33;;;3.90;;
2404;SDS011;1213;43.206;27.922;2023-08-07T03:43:57;3.50;;;3.20;;
2404;SDS011;1213;43.206;27.922;2023-08-07T03:46:22;4.87;;;4.03;;
2404;SDS011;1213;43.206;27.922;2023-08-07T03:48:48;5.53;;;5.03;;
2404;SDS011;1213;43.206;27.922;2023-08-07T03:51:13;4.80;;;4.10;;
2404;SDS011;1213;43.206;27.922;2023-08-07T03:53:41;7.10;;;3.97;;
2404;SDS011;1213;43.206;27.922;2023-08-07T03:56:07;4.10;;;3.70;;
2404;SDS011;1213;43.206;27.922;2023-08-07T03:58:32;4.97;;;4.07;;
2404;SDS011;1213;43.206;27.922;2023-08-07T04:00:58;4.20;;;3.50;;
2404;SDS011;1213;43.206;27.922;2023-08-07T04:03:23;2.90;;;2.67;;
2404;SDS011;1213;43.206;27.922;2023-08-07T04:05:52;3.40;;;3.10;;
2404;SDS011;1213;43.206;27.922;2023-08-07T04:08:19;3.90;;;3.60;;
2404;SDS011;1213;43.206;27.922;2023-08-07T04:10:45;3.17;;;2.87;;
2404;SDS011;1213;43.206;27.922;2023-08-07T04:13:10;5.37;;;3.30;;
2404;SDS011;1213;43.206;27.922;2023-08-07T04:15:35;4.90;;;3.60;;
2404;SDS011;1213;43.206;27.922;2023-08-07T04:18:01;3.63;;;3.33;;
2404;SDS011;1213;43.206;27.922;2023-08-07T04:20:26;5.33;;;3.30;;
2404;SDS011;1213;43.206;27.922;2023-08-07T04:22:52;3.80;;;3.33;;
2404;SDS011;1213;43.206;27.922;2023-08-07T04:25:17;5.47;;;3.60;;
2404;SDS011;1213;43.206;27.922;2023-08-07T04:27:42;3.00;;;2.80;;
2404;SDS011;1213;43.206;27.922;2023-08-07T04:30:08;3.83;;;3.53;;
2404;SDS011;1213;43.206;27.922;2023-08-07T04:32:34;6.10;;;3.27;;
2404;SDS011;1213;43.206;27.922;2023-08-07T04:34:59;2.43;;;2.17;;
2404;SDS011;1213;43.206;27.922;2023-08-07T04:37:25;2.57;;;2.37;;
2404;SDS011;1213;43.206;27.922;2023-08-07T04:39:50;4.30;;;3.90;;
2404;SDS011;1213;43.206;27.922;2023-08-07T04:42:15;3.10;;;2.90;;
2404;SDS011;1213;43.206;27.922;2023-08-07T04:44:41;3.00;;;2.80;;
2404;SDS011;1213;43.206;27.922;2023-08-07T04:47:06;2.87;;;2.67;;
2404;SDS011;1213;43.206;27.922;2023-08-07T04:49:32;4.53;;;4.13;;
2404;SDS011;1213;43.206;27.922;2023-08-07T04:51:58;2.53;;;2.33;;
2404;SDS011;1213;43.206;27.922;2023-08-07T04:54:23;3.10;;;2.80;;
2404;SDS011;1213;43.206;27.922;2023-08-07T04:56:49;3.43;;;3.10;;
2404;SDS011;1213;43.206;27.922;2023-08-07T04:59:14;2.47;;;2.27;;
2404;SDS011;1213;43.206;27.922;2023-08-07T05:01:39;2.50;;;2.40;;
2404;SDS011;1213;43.206;27.922;2023-08-07T05:04:05;6.57;;;2.43;;
2404;SDS011;1213;43.206;27.922;2023-08-07T05:06:31;1.97;;;1.60;;
2404;SDS011;1213;43.206;27.922;2023-08-07T05:08:56;2.33;;;2.13;;
2404;SDS011;1213;43.206;27.922;2023-08-07T05:11:22;1.93;;;1.63;;
2404;SDS011;1213;43.206;27.922;2023-08-07T05:13:47;4.93;;;1.97;;
2404;SDS011;1213;43.206;27.922;2023-08-07T05:16:13;2.40;;;2.20;;
2404;SDS011;1213;43.206;27.922;2023-08-07T05:18:38;1.77;;;1.67;;
2404;SDS011;1213;43.206;27.922;2023-08-07T05:21:04;2.00;;;1.60;;
2404;SDS011;1213;43.206;27.922;2023-08-07T05:23:29;3.37;;;2.40;;
2404;SDS011;1213;43.206;27.922;2023-08-07T05:25:54;6.73;;;2.57;;
2404;SDS011;1213;43.206;27.922;2023-08-07T05:28:20;1.83;;;1.43;;
2404;SDS011;1213;43.206;27.922;2023-08-07T05:30:46;2.37;;;2.17;;
2404;SDS011;1213;43.206;27.922;2023-08-07T05:33:11;2.30;;;2.10;;
2404;SDS011;1213;43.206;27.922;2023-08-07T05:35:39;1.63;;;1.43;;
2404;SDS011;1213;43.206;27.922;2023-08-07T05:38:05;1.90;;;1.80;;
2404;SDS011;1213;43.206;27.922;2023-08-07T05:40:30;3.17;;;2.13;;
2404;SDS011;1213;43.206;27.922;2023-08-07T05:42:56;1.60;;;1.17;;
2404;SDS011;1213;43.206;27.922;2023-08-07T05:45:21;1.63;;;1.53;;
2404;SDS011;1213;43.206;27.922;2023-08-07T05:47:47;3.33;;;2.20;;
2404;SDS011;1213;43.206;27.922;2023-08-07T05:50:12;1.60;;;1.50;;
2404;SDS011;1213;43.206;27.922;2023-08-07T05:52:38;2.60;;;2.00;;
2404;SDS011;1213;43.206;27.922;2023-08-07T05:55:03;3.00;;;2.00;;
2404;SDS011;1213;43.206;27.922;2023-08-07T05:57:29;1.83;;;1.73;;
2404;SDS011;1213;43.206;27.922;2023-08-07T05:59:55;3.97;;;2.00;;
2404;SDS011;1213;43.206;27.922;2023-08-07T06:02:20;2.30;;;1.73;;
2404;SDS011;1213;43.206;27.922;2023-08-07T06:04:45;3.47;;;1.50;;
2404;SDS011;1213;43.206;27.922;2023-08-07T06:07:11;2.40;;;1.50;;
2404;SDS011;1213;43.206;27.922;2023-08-07T06:09:37;3.00;;;1.70;;
2404;SDS011;1213;43.206;27.922;2023-08-07T06:12:03;2.23;;;1.90;;
2404;SDS011;1213;43.206;27.922;2023-08-07T06:14:28;1.33;;;1.23;;
2404;SDS011;1213;43.206;27.922;2023-08-07T06:16:55;1.90;;;1.60;;
2404;SDS011;1213;43.206;27.922;2023-08-07T06:19:24;2.40;;;1.90;;
2404;SDS011;1213;43.206;27.922;2023-08-07T06:21:52;1.67;;;1.57;;
2404;SDS011;1213;43.206;27.922;2023-08-07T06:24:19;1.67;;;1.57;;
2404;SDS011;1213;43.206;27.922;2023-08-07T06:26:45;1.80;;;1.70;;
2404;SDS011;1213;43.206;27.922;2023-08-07T06:29:10;1.87;;;1.60;;
2404;SDS011;1213;43.206;27.922;2023-08-07T06:31:35;4.60;;;1.60;;
2404;SDS011;1213;43.206;27.922;2023-08-07T06:34:01;2.20;;;1.00;;
2404;SDS011;1213;43.206;27.922;2023-08-07T06:36:27;2.70;;;1.57;;
2404;SDS011;1213;43.206;27.922;2023-08-07T06:38:52;2.07;;;1.77;;
2404;SDS011;1213;43.206;27.922;2023-08-07T06:41:17;1.20;;;1.10;;
2404;SDS011;1213;43.206;27.922;2023-08-07T06:43:43;1.27;;;1.17;;
2404;SDS011;1213;43.206;27.922;2023-08-07T06:46:08;9.70;;;1.70;;
2404;SDS011;1213;43.206;27.922;2023-08-07T06:48:35;1.53;;;1.30;;
2404;SDS011;1213;43.206;27.922;2023-08-07T06:51:00;2.13;;;1.53;;
2404;SDS011;1213;43.206;27.922;2023-08-07T06:53:26;3.87;;;1.80;;
2404;SDS011;1213;43.206;27.922;2023-08-07T06:55:52;2.60;;;1.40;;
2404;SDS011;1213;43.206;27.922;2023-08-07T06:58:18;3.00;;;1.93;;
2404;SDS011;1213;43.206;27.922;2023-08-07T07:00:43;1.67;;;1.57;;
2404;SDS011;1213;43.206;27.922;2023-08-07T07:03:09;1.00;;;0.90;;
2404;SDS011;1213;43.206;27.922;2023-08-07T07:05:35;1.93;;;1.60;;
2404;SDS011;1213;43.206;27.922;2023-08-07T07:08:00;1.80;;;1.40;;
2404;SDS011;1213;43.206;27.922;2023-08-07T07:10:26;3.30;;;1.90;;
2404;SDS011;1213;43.206;27.922;2023-08-07T07:12:51;1.30;;;1.20;;
2404;SDS011;1213;43.206;27.922;2023-08-07T07:15:17;1.40;;;1.30;;
2404;SDS011;1213;43.206;27.922;2023-08-07T07:17:43;1.40;;;1.30;;
2404;SDS011;1213;43.206;27.922;2023-08-07T07:20:08;1.30;;;1.20;;
2404;SDS011;1213;43.206;27.922;2023-08-07T07:22:34;2.17;;;1.10;;
2404;SDS011;1213;43.206;27.922;2023-08-07T07:25:03;1.40;;;1.30;;
2404;SDS011;1213;43.206;27.922;2023-08-07T07:27:29;1.60;;;1.50;;
2404;SDS011;1213;43.206;27.922;2023-08-07T07:29:54;1.93;;;1.80;;
2404;SDS011;1213;43.206;27.922;2023-08-07T07:32:19;2.57;;;2.00;;
2404;SDS011;1213;43.206;27.922;2023-08-07T07:34:45;1.67;;;1.43;;
2404;SDS011;1213;43.206;27.922;2023-08-07T07:37:10;1.77;;;1.67;;
2404;SDS011;1213;43.206;27.922;2023-08-07T07:39:36;1.63;;;1.40;;
2404;SDS011;1213;43.206;27.922;2023-08-07T07:42:01;1.57;;;1.20;;
2404;SDS011;1213;43.206;27.922;2023-08-07T07:44:28;1.30;;;1.20;;
2404;SDS011;1213;43.206;27.922;2023-08-07T07:46:54;1.40;;;1.30;;
2404;SDS011;1213;43.206;27.922;2023-08-07T07:49:19;1.77;;;1.67;;
2404;SDS011;1213;43.206;27.922;2023-08-07T07:51:45;5.40;;;1.97;;
2404;SDS011;1213;43.206;27.922;2023-08-07T07:54:11;2.80;;;1.00;;
2404;SDS011;1213;43.206;27.922;2023-08-07T07:56:36;3.10;;;1.50;;
2404;SDS011;1213;43.206;27.922;2023-08-07T07:59:02;1.87;;;1.50;;
2404;SDS011;1213;43.206;27.922;2023-08-07T08:01:27;2.43;;;1.70;;
2404;SDS011;1213;43.206;27.922;2023-08-07T08:03:53;1.30;;;1.20;;
2404;SDS011;1213;43.206;27.922;2023-08-07T08:06:18;6.20;;;1.50;;
2404;SDS011;1213;43.206;27.922;2023-08-07T08:08:44;2.77;;;1.30;;
2404;SDS011;1213;43.206;27.922;2023-08-07T08:11:09;1.83;;;1.57;;
2404;SDS011;1213;43.206;27.922;2023-08-07T08:13:35;1.00;;;0.90;;
2404;SDS011;1213;43.206;27.922;2023-08-07T08:16:04;1.87;;;1.40;;
2404;SDS011;1213;43.206;27.922;2023-08-07T08:18:30;1.93;;;1.47;;
2404;SDS011;1213;43.206;27.922;2023-08-07T08:20:55;1.73;;;1.50;;
2404;SDS011;1213;43.206;27.922;2023-08-07T08:23:21;1.30;;;1.20;;
2404;SDS011;1213;43.206;27.922;2023-08-07T08:25:46;1.33;;;1.23;;
2404;SDS011;1213;43.206;27.922;2023-08-07T08:28:13;1.63;;;1.20;;
2404;SDS011;1213;43.206;27.922;2023-08-07T08:30:38;1.50;;;1.40;;
2404;SDS011;1213;43.206;27.922;2023-08-07T08:33:04;1.37;;;1.20;;
2404;SDS011;1213;43.206;27.922;2023-08-07T08:35:30;1.57;;;1.47;;
2404;SDS011;1213;43.206;27.922;2023-08-07T08:37:56;1.97;;;1.63;;
2404;SDS011;1213;43.206;27.922;2023-08-07T08:40:22;2.77;;;1.67;;
2404;SDS011;1213;43.206;27.922;2023-08-07T08:42:49;2.10;;;1.77;;
2404;SDS011;1213;43.206;27.922;2023-08-07T08:45:16;1.87;;;1.60;;
2404;SDS011;1213;43.206;27.922;2023-08-07T08:47:44;2.07;;;1.63;;
2404;SDS011;1213;43.206;27.922;2023-08-07T08:50:12;3.37;;;1.70;;
2404;SDS011;1213;43.206;27.922;2023-08-07T08:52:41;2.07;;;1.93;;
2404;SDS011;1213;43.206;27.922;2023-08-07T08:55:08;1.87;;;1.70;;
2404;SDS011;1213;43.206;27.922;2023-08-07T08:57:34;2.23;;;1.80;;
2404;SDS011;1213;43.206;27.922;2023-08-07T09:00:01;1.50;;;1.40;;
2404;SDS011;1213;43.206;27.922;2023-08-07T09:02:32;1.73;;;1.57;;
2404;SDS011;1213;43.206;27.922;2023-08-07T09:04:58;3.07;;;2.40;;
2404;SDS011;1213;43.206;27.922;2023-08-07T09:07:23;1.77;;;1.67;;
2404;SDS011;1213;43.206;27.922;2023-08-07T09:09:50;1.90;;;1.70;;
2404;SDS011;1213;43.206;27.922;2023-08-07T09:12:20;2.33;;;2.13;;
2404;SDS011;1213;43.206;27.922;2023-08-07T09:14:53;2.20;;;2.00;;
2404;SDS011;1213;43.206;27.922;2023-08-07T09:17:23;3.70;;;3.40;;
2404;SDS011;1213;43.206;27.922;2023-08-07T09:19:52;3.50;;;3.20;;
2404;SDS011;1213;43.206;27.922;2023-08-07T09:22:18;2.10;;;1.90;;
2404;SDS011;1213;43.206;27.922;2023-08-07T09:24:44;2.70;;;1.77;;
2404;SDS011;1213;43.206;27.922;2023-08-07T09:27:10;2.53;;;2.33;;
2404;SDS011;1213;43.206;27.922;2023-08-07T09:29:36;1.90;;;1.60;;
2404;SDS011;1213;43.206;27.922;2023-08-07T09:32:13;2.10;;;2.00;;
2404;SDS011;1213;43.206;27.922;2023-08-07T09:34:39;3.57;;;2.67;;
2404;SDS011;1213;43.206;27.922;2023-08-07T09:37:06;2.70;;;1.73;;
2404;SDS011;1213;43.206;27.922;2023-08-07T09:39:33;6.20;;;2.23;;
2404;SDS011;1213;43.206;27.922;2023-08-07T09:42:00;3.20;;;2.27;;
2404;SDS011;1213;43.206;27.922;2023-08-07T09:44:27;3.60;;;1.87;;
2404;SDS011;1213;43.206;27.922;2023-08-07T09:47:00;1.50;;;1.40;;
2404;SDS011;1213;43.206;27.922;2023-08-07T09:49:36;1.70;;;1.60;;
2404;SDS011;1213;43.206;27.922;2023-08-07T09:52:02;1.87;;;1.77;;
2404;SDS011;1213;43.206;27.922;2023-08-07T09:54:32;2.13;;;1.93;;
2404;SDS011;1213;43.206;27.922;2023-08-07T09:56:59;1.87;;;1.60;;
2404;SDS011;1213;43.206;27.922;2023-08-07T09:59:26;1.60;;;1.50;;
2404;SDS011;1213;43.206;27.922;2023-08-07T10:01:52;1.30;;;1.20;;
2404;SDS011;1213;43.206;27.922;2023-08-07T10:04:19;1.93;;;1.80;;
2404;SDS011;1213;43.206;27.922;2023-08-07T10:06:46;1.23;;;1.13;;
2404;SDS011;1213;43.206;27.922;2023-08-07T10:09:12;2.00;;;1.90;;
2404;SDS011;1213;43.206;27.922;2023-08-07T10:11:38;3.83;;;1.37;;
2404;SDS011;1213;43.206;27.922;2023-08-07T10:14:04;1.90;;;1.80;;
2404;SDS011;1213;43.206;27.922;2023-08-07T10:16:30;4.07;;;2.07;;
2404;SDS011;1213;43.206;27.922;2023-08-07T10:18:56;2.10;;;1.90;;
2404;SDS011;1213;43.206;27.922;2023-08-07T10:21:23;1.33;;;1.23;;
2404;SDS011;1213;43.206;27.922;2023-08-07T10:23:51;4.60;;;1.60;;
2404;SDS011;1213;43.206;27.922;2023-08-07T10:26:19;2.00;;;1.90;;
2404;SDS011;1213;43.206;27.922;2023-08-07T10:28:48;1.97;;;1.67;;
2404;SDS011;1213;43.206;27.922;2023-08-07T10:31:17;2.37;;;1.60;;
2404;SDS011;1213;43.206;27.922;2023-08-07T10:33:44;2.93;;;1.90;;
2404;SDS011;1213;43.206;27.922;2023-08-07T10:36:09;1.73;;;1.63;;
2404;SDS011;1213;43.206;27.922;2023-08-07T10:38:36;1.63;;;1.50;;
2404;SDS011;1213;43.206;27.922;2023-08-07T10:41:05;3.40;;;1.97;;
2404;SDS011;1213;43.206;27.922;2023-08-07T10:43:36;1.77;;;1.67;;
2404;SDS011;1213;43.206;27.922;2023-08-07T10:46:07;1.80;;;1.50;;
2404;SDS011;1213;43.206;27.922;2023-08-07T10:48:38;2.47;;;1.53;;
2404;SDS011;1213;43.206;27.922;2023-08-07T10:51:04;1.90;;;1.80;;
2404;SDS011;1213;43.206;27.922;2023-08-07T10:53:30;2.20;;;1.97;;
2404;SDS011;1213;43.206;27.922;2023-08-07T10:56:08;1.67;;;1.57;;
2404;SDS011;1213;43.206;27.922;2023-08-07T10:58:36;1.93;;;1.83;;
2404;SDS011;1213;43.206;27.922;2023-08-07T11:04:00;2.00;;;1.50;;
2404;SDS011;1213;43.206;27.922;2023-08-07T11:06:31;1.97;;;1.87;;
2404;SDS011;1213;43.206;27.922;2023-08-07T11:09:01;1.60;;;1.50;;
2404;SDS011;1213;43.206;27.922;2023-08-07T11:11:29;1.50;;;1.40;;
2404;SDS011;1213;43.206;27.922;2023-08-07T11:14:00;2.33;;;1.90;;
2404;SDS011;1213;43.206;27.922;2023-08-07T11:16:25;1.60;;;1.50;;
2404;SDS011;1213;43.206;27.922;2023-08-07T11:18:52;1.50;;;1.40;;
2404;SDS011;1213;43.206;27.922;2023-08-07T11:21:18;2.87;;;2.63;;
2404;SDS011;1213;43.206;27.922;2023-08-07T11:23:43;2.33;;;2.00;;
2404;SDS011;1213;43.206;27.922;2023-08-07T11:26:09;2.80;;;2.60;;
2404;SDS011;1213;43.206;27.922;2023-08-07T11:28:35;5.67;;;1.90;;
2404;SDS011;1213;43.206;27.922;2023-08-07T11:31:01;2.53;;;2.00;;
2404;SDS011;1213;43.206;27.922;2023-08-07T11:33:27;2.20;;;2.00;;
2404;SDS011;1213;43.206;27.922;2023-08-07T11:35:54;2.10;;;2.00;;
2404;SDS011;1213;43.206;27.922;2023-08-07T11:40:59;2.77;;;2.00;;
2404;SDS011;1213;43.206;27.922;2023-08-07T11:43:28;1.87;;;1.77;;
2404;SDS011;1213;43.206;27.922;2023-08-07T11:45:55;5.10;;;2.00;;
2404;SDS011;1213;43.206;27.922;2023-08-07T11:48:27;1.87;;;1.77;;
2404;SDS011;1213;43.206;27.922;2023-08-07T11:50:54;1.70;;;1.60;;
2404;SDS011;1213;43.206;27.922;2023-08-07T11:53:21;1.77;;;1.67;;
2404;SDS011;1213;43.206;27.922;2023-08-07T11:55:47;2.57;;;1.50;;
2404;SDS011;1213;43.206;27.922;2023-08-07T11:58:18;4.80;;;2.57;;
2404;SDS011;1213;43.206;27.922;2023-08-07T12:00:43;3.87;;;1.70;;
2404;SDS011;1213;43.206;27.922;2023-08-07T12:05:52;4.40;;;1.47;;
2404;SDS011;1213;43.206;27.922;2023-08-07T12:08:20;2.13;;;1.67;;
2404;SDS011;1213;43.206;27.922;2023-08-07T12:10:48;1.57;;;1.47;;
2404;SDS011;1213;43.206;27.922;2023-08-07T12:13:15;2.03;;;1.80;;
2404;SDS011;1213;43.206;27.922;2023-08-07T12:15:41;1.67;;;1.57;;
2404;SDS011;1213;43.206;27.922;2023-08-07T12:18:08;2.60;;;1.90;;
2404;SDS011;1213;43.206;27.922;2023-08-07T12:20:33;5.67;;;3.80;;
2404;SDS011;1213;43.206;27.922;2023-08-07T12:22:59;1.80;;;1.40;;
2404;SDS011;1213;43.206;27.922;2023-08-07T12:25:24;1.83;;;1.73;;
2404;SDS011;1213;43.206;27.922;2023-08-07T12:27:50;2.47;;;2.27;;
2404;SDS011;1213;43.206;27.922;2023-08-07T12:30:15;3.23;;;2.93;;
2404;SDS011;1213;43.206;27.922;2023-08-07T12:32:40;2.00;;;1.60;;
2404;SDS011;1213;43.206;27.922;2023-08-07T12:35:06;3.63;;;1.70;;
2404;SDS011;1213;43.206;27.922;2023-08-07T12:37:34;1.83;;;1.73;;
2404;SDS011;1213;43.206;27.922;2023-08-07T12:39:59;1.80;;;1.30;;
2404;SDS011;1213;43.206;27.922;2023-08-07T12:42:25;2.60;;;1.50;;
2404;SDS011;1213;43.206;27.922;2023-08-07T12:44:50;1.50;;;1.40;;
2404;SDS011;1213;43.206;27.922;2023-08-07T12:47:16;1.87;;;1.77;;
2404;SDS011;1213;43.206;27.922;2023-08-07T12:49:41;1.83;;;1.57;;
2404;SDS011;1213;43.206;27.922;2023-08-07T12:52:06;1.77;;;1.63;;
2404;SDS011;1213;43.206;27.922;2023-08-07T12:54:32;1.70;;;1.57;;
2404;SDS011;1213;43.206;27.922;2023-08-07T12:56:57;3.83;;;1.90;;
2404;SDS011;1213;43.206;27.922;2023-08-07T12:59:23;2.47;;;2.27;;
2404;SDS011;1213;43.206;27.922;2023-08-07T13:01:48;2.10;;;1.90;;
2404;SDS011;1213;43.206;27.922;2023-08-07T13:04:14;2.33;;;1.70;;
2404;SDS011;1213;43.206;27.922;2023-08-07T13:06:40;7.93;;;1.70;;
2404;SDS011;1213;43.206;27.922;2023-08-07T13:09:06;1.73;;;1.60;;
2404;SDS011;1213;43.206;27.922;2023-08-07T13:11:32;1.60;;;1.50;;
2404;SDS011;1213;43.206;27.922;2023-08-07T13:13:57;1.37;;;1.27;;
2404;SDS011;1213;43.206;27.922;2023-08-07T13:16:23;1.43;;;1.33;;
2404;SDS011;1213;43.206;27.922;2023-08-07T13:18:48;1.60;;;1.50;;
2404;SDS011;1213;43.206;27.922;2023-08-07T13:21:13;2.60;;;1.73;;
2404;SDS011;1213;43.206;27.922;2023-08-07T13:23:39;1.60;;;1.50;;
2404;SDS011;1213;43.206;27.922;2023-08-07T13:26:04;1.47;;;1.37;;
2404;SDS011;1213;43.206;27.922;2023-08-07T13:28:30;1.70;;;1.40;;
2404;SDS011;1213;43.206;27.922;2023-08-07T13:30:55;5.10;;;2.13;;
2404;SDS011;1213;43.206;27.922;2023-08-07T13:33:23;2.33;;;2.00;;
2404;SDS011;1213;43.206;27.922;2023-08-07T13:35:48;1.80;;;1.70;;
2404;SDS011;1213;43.206;27.922;2023-08-07T13:38:14;2.47;;;1.30;;
2404;SDS011;1213;43.206;27.922;2023-08-07T13:40:41;1.80;;;1.23;;
2404;SDS011;1213;43.206;27.922;2023-08-07T13:43:09;2.00;;;1.63;;
2404;SDS011;1213;43.206;27.922;2023-08-07T13:45:34;2.50;;;1.40;;
2404;SDS011;1213;43.206;27.922;2023-08-07T13:48:00;3.87;;;1.30;;
2404;SDS011;1213;43.206;27.922;2023-08-07T13:50:27;2.30;;;1.97;;
2404;SDS011;1213;43.206;27.922;2023-08-07T13:52:52;2.33;;;1.50;;
2404;SDS011;1213;43.206;27.922;2023-08-07T13:55:18;1.80;;;1.70;;
2404;SDS011;1213;43.206;27.922;2023-08-07T13:57:43;2.30;;;2.10;;
2404;SDS011;1213;43.206;27.922;2023-08-07T14:00:09;2.10;;;1.43;;
2404;SDS011;1213;43.206;27.922;2023-08-07T14:02:36;3.20;;;1.50;;
2404;SDS011;1213;43.206;27.922;2023-08-07T14:05:01;1.63;;;1.53;;
2404;SDS011;1213;43.206;27.922;2023-08-07T14:07:27;1.80;;;1.30;;
2404;SDS011;1213;43.206;27.922;2023-08-07T14:09:53;2.63;;;1.60;;
2404;SDS011;1213;43.206;27.922;2023-08-07T14:12:19;2.23;;;2.03;;
2404;SDS011;1213;43.206;27.922;2023-08-07T14:14:44;2.27;;;2.07;;
2404;SDS011;1213;43.206;27.922;2023-08-07T14:17:09;1.47;;;1.30;;
2404;SDS011;1213;43.206;27.922;2023-08-07T14:19:35;3.50;;;2.10;;
2404;SDS011;1213;43.206;27.922;2023-08-07T14:22:00;1.70;;;1.60;;
2404;SDS011;1213;43.206;27.922;2023-08-07T14:24:26;1.60;;;1.50;;
2404;SDS011;1213;43.206;27.922;2023-08-07T14:26:51;2.87;;;1.80;;
2404;SDS011;1213;43.206;27.922;2023-08-07T14:29:17;2.33;;;1.87;;
2404;SDS011;1213;43.206;27.922;2023-08-07T14:31:42;2.90;;;1.80;;
2404;SDS011;1213;43.206;27.922;2023-08-07T14:34:08;2.43;;;1.93;;
2404;SDS011;1213;43.206;27.922;2023-08-07T14:36:33;5.03;;;1.37;;
2404;SDS011;1213;43.206;27.922;2023-08-07T14:38:59;4.10;;;3.40;;
2404;SDS011;1213;43.206;27.922;2023-08-07T14:41:24;2.63;;;1.80;;
2404;SDS011;1213;43.206;27.922;2023-08-07T14:43:50;2.27;;;1.70;;
2404;SDS011;1213;43.206;27.922;2023-08-07T14:46:16;4.10;;;3.80;;
2404;SDS011;1213;43.206;27.922;2023-08-07T14:48:43;2.20;;;2.00;;
2404;SDS011;1213;43.206;27.922;2023-08-07T14:51:08;1.67;;;1.57;;
2404;SDS011;1213;43.206;27.922;2023-08-07T14:53:34;1.57;;;1.43;;
2404;SDS011;1213;43.206;27.922;2023-08-07T14:56:00;5.37;;;4.30;;
2404;SDS011;1213;43.206;27.922;2023-08-07T14:58:26;3.37;;;3.03;;
2404;SDS011;1213;43.206;27.922;2023-08-07T15:00:54;2.80;;;1.80;;
2404;SDS011;1213;43.206;27.922;2023-08-07T15:03:20;1.70;;;1.60;;
2404;SDS011;1213;43.206;27.922;2023-08-07T15:05:46;1.60;;;1.50;;
2404;SDS011;1213;43.206;27.922;2023-08-07T15:08:11;3.57;;;3.27;;